An Xiu Shan — BRQV — position and weather

sailwx.info

Track history (hours):
 
Tides and Currents Weather Stations Pressure Air Temp Water Temp Dewpoint Dewpoint Depression Visibility Wind Speed Wind Dir Waves Ship Positions

An Xiu Shan

Last reported at 2017-Jun-21 20:43 UTC. Time now 2017-Jun-25 07:09 UTC.
Position N 23°52' E 118°09'.

Length 199 m; draft 11.7 m.

Type: Cargo ship. MMSI: 413195000.

Date/timePositionNaut miles runAvg speedWind from/ knotsBaromVisibWave heightAir tempDewpointWater temp
2017-Jun-21 20:43N 23°52' E 118°09'4 9.3
2017-Jun-21 20:14N 23°55' E 118°12'4 9.3
2017-Jun-21 19:47N 23°58' E 118°15'3 9.4
2017-Jun-21 19:30N 24°00' E 118°17'5 9.5
2017-Jun-21 18:59N 24°04' E 118°21'10 9.8
2017-Jun-21 17:57N 24°11' E 118°29'1310.2
2017-Jun-21 16:38N 24°20' E 118°39'110.2
2017-Jun-21 16:29N 24°21' E 118°41'  
2017-Jun-17 23:33N 37°37' E 122°52'2011.7
2017-Jun-17 21:51N 37°47' E 122°30'411.7
2017-Jun-17 21:30N 37°48' E 122°25'611.5
2017-Jun-17 21:00N 37°51' E 122°19'611.3
2017-Jun-17 20:30N 37°54' E 122°12'611.2
2017-Jun-17 20:00N 37°56' E 122°06'611.3
2017-Jun-17 19:31N 37°59' E 121°60'611.1
2017-Jun-17 19:00N 38°02' E 121°54'510.9
2017-Jun-17 18:30N 38°05' E 121°48'511.0
2017-Jun-17 18:01N 38°07' E 121°42'611.0
2017-Jun-17 17:30N 38°10' E 121°35'611.2
2017-Jun-17 17:00N 38°13' E 121°30'611.3
2017-Jun-17 16:29N 38°16' E 121°24'511.3
2017-Jun-17 16:00N 38°20' E 121°18'1211.2
2017-Jun-17 14:56N 38°27' E 121°06'29 9.8
2017-Jun-17 11:58N 38°50' E 120°43'15 9.0
2017-Jun-17 10:21N 39°04' E 120°37'3 8.8
2017-Jun-17 10:00N 39°07' E 120°36'5 8.9
2017-Jun-17 09:23N 39°12' E 120°33'10 9.0
2017-Jun-17 08:17N 39°21' E 120°28'2 7.4
2017-Jun-17 08:00N 39°23' E 120°29'5 9.5
2017-Jun-17 07:27N 39°26' E 120°35'410.2
2017-Jun-17 07:00N 39°29' E 120°40'510.1
2017-Jun-17 06:31N 39°31' E 120°45'510.3
2017-Jun-17 06:00N 39°34' E 120°51'510.3
2017-Jun-17 05:30N 39°37' E 120°56'  
2017-Jun-12 18:21N 39°04' E 120°51'412.3
2017-Jun-12 17:59N 39°00' E 120°52'612.2
2017-Jun-12 17:28N 38°54' E 120°54'612.1
2017-Jun-12 17:00N 38°48' E 120°56'611.3
2017-Jun-12 16:30N 38°43' E 120°57'611.3
2017-Jun-12 16:00N 38°38' E 120°59'510.6
2017-Jun-12 15:30N 38°33' E 121°03'611.5
2017-Jun-12 15:00N 38°30' E 121°09'611.4
2017-Jun-12 14:30N 38°27' E 121°15'1111.3
2017-Jun-12 13:30N 38°20' E 121°27'611.5
2017-Jun-12 13:00N 38°17' E 121°33'611.7
2017-Jun-12 12:30N 38°14' E 121°40'611.9
2017-Jun-12 12:00N 38°11' E 121°46'612.0
2017-Jun-12 11:30N 38°07' E 121°52'612.2
2017-Jun-12 11:00N 38°04' E 121°58'612.3
2017-Jun-12 10:30N 38°00' E 122°05'612.5
2017-Jun-12 10:00N 37°57' E 122°11'612.3
2017-Jun-12 09:30N 37°53' E 122°18'612.3
2017-Jun-12 09:00N 37°50' E 122°24'612.2
2017-Jun-12 08:30N 37°47' E 122°31'612.1
2017-Jun-12 08:00N 37°43' E 122°37'611.7
2017-Jun-12 07:30N 37°40' E 122°43'611.3
2017-Jun-12 07:00N 37°35' E 122°46'611.2
2017-Jun-12 06:30N 37°30' E 122°50'510.8
2017-Jun-12 06:00N 37°25' E 122°53'  
Track history (hours):
 
Tides and Currents Weather Stations Pressure Air Temp Water Temp Dewpoint Dewpoint Depression Visibility Wind Speed Wind Dir Waves Ship Positions

An Xiu Shan

Last reported at 2017-Jun-21 20:43 UTC. Time now 2017-Jun-25 07:09 UTC.
Position N 23°52' E 118°09'.

Length 199 m; draft 11.7 m.

Type: Cargo ship. MMSI: 413195000.

Date/timePositionNaut miles runAvg speedWind from/ knotsBaromVisibWave heightAir tempDewpointWater temp
2017-Jun-21 20:43N 23°52' E 118°09'4 9.3
2017-Jun-21 20:14N 23°55' E 118°12'4 9.3
2017-Jun-21 19:47N 23°58' E 118°15'3 9.4
2017-Jun-21 19:30N 24°00' E 118°17'5 9.5
2017-Jun-21 18:59N 24°04' E 118°21'10 9.8
2017-Jun-21 17:57N 24°11' E 118°29'1310.2
2017-Jun-21 16:38N 24°20' E 118°39'110.2
2017-Jun-21 16:29N 24°21' E 118°41'  
2017-Jun-17 23:33N 37°37' E 122°52'2011.7
2017-Jun-17 21:51N 37°47' E 122°30'411.7
2017-Jun-17 21:30N 37°48' E 122°25'611.5
2017-Jun-17 21:00N 37°51' E 122°19'611.3
2017-Jun-17 20:30N 37°54' E 122°12'611.2
2017-Jun-17 20:00N 37°56' E 122°06'611.3
2017-Jun-17 19:31N 37°59' E 121°60'611.1
2017-Jun-17 19:00N 38°02' E 121°54'510.9
2017-Jun-17 18:30N 38°05' E 121°48'511.0
2017-Jun-17 18:01N 38°07' E 121°42'611.0
2017-Jun-17 17:30N 38°10' E 121°35'611.2
2017-Jun-17 17:00N 38°13' E 121°30'611.3
2017-Jun-17 16:29N 38°16' E 121°24'511.3
2017-Jun-17 16:00N 38°20' E 121°18'1211.2
2017-Jun-17 14:56N 38°27' E 121°06'29 9.8
2017-Jun-17 11:58N 38°50' E 120°43'15 9.0
2017-Jun-17 10:21N 39°04' E 120°37'3 8.8
2017-Jun-17 10:00N 39°07' E 120°36'5 8.9
2017-Jun-17 09:23N 39°12' E 120°33'10 9.0
2017-Jun-17 08:17N 39°21' E 120°28'2 7.4
2017-Jun-17 08:00N 39°23' E 120°29'5 9.5
2017-Jun-17 07:27N 39°26' E 120°35'410.2
2017-Jun-17 07:00N 39°29' E 120°40'510.1
2017-Jun-17 06:31N 39°31' E 120°45'510.3
2017-Jun-17 06:00N 39°34' E 120°51'510.3
2017-Jun-17 05:30N 39°37' E 120°56'  
2017-Jun-12 18:21N 39°04' E 120°51'412.3
2017-Jun-12 17:59N 39°00' E 120°52'612.2
2017-Jun-12 17:28N 38°54' E 120°54'612.1
2017-Jun-12 17:00N 38°48' E 120°56'611.3
2017-Jun-12 16:30N 38°43' E 120°57'611.3
2017-Jun-12 16:00N 38°38' E 120°59'510.6
2017-Jun-12 15:30N 38°33' E 121°03'611.5
2017-Jun-12 15:00N 38°30' E 121°09'611.4
2017-Jun-12 14:30N 38°27' E 121°15'1111.3
2017-Jun-12 13:30N 38°20' E 121°27'611.5
2017-Jun-12 13:00N 38°17' E 121°33'611.7
2017-Jun-12 12:30N 38°14' E 121°40'611.9
2017-Jun-12 12:00N 38°11' E 121°46'612.0
2017-Jun-12 11:30N 38°07' E 121°52'612.2
2017-Jun-12 11:00N 38°04' E 121°58'612.3
2017-Jun-12 10:30N 38°00' E 122°05'612.5
2017-Jun-12 10:00N 37°57' E 122°11'612.3
2017-Jun-12 09:30N 37°53' E 122°18'612.3
2017-Jun-12 09:00N 37°50' E 122°24'612.2
2017-Jun-12 08:30N 37°47' E 122°31'612.1
2017-Jun-12 08:00N 37°43' E 122°37'611.7
2017-Jun-12 07:30N 37°40' E 122°43'611.3
2017-Jun-12 07:00N 37°35' E 122°46'611.2
2017-Jun-12 06:30N 37°30' E 122°50'510.8
2017-Jun-12 06:00N 37°25' E 122°53'  

Dump ship's entire track history